sensor_id;sensor_type;location;lat;lon;timestamp;P1;durP1;ratioP1;P2;durP2;ratioP2
6101;SDS011;3081;50.584;7.032;2023-04-27T00:01:52;11.00;;;4.70;;
6101;SDS011;3081;50.584;7.032;2023-04-27T00:04:20;13.47;;;4.80;;
6101;SDS011;3081;50.584;7.032;2023-04-27T00:06:47;13.27;;;5.30;;
6101;SDS011;3081;50.584;7.032;2023-04-27T00:09:14;12.23;;;5.40;;
6101;SDS011;3081;50.584;7.032;2023-04-27T00:11:41;10.70;;;5.13;;
6101;SDS011;3081;50.584;7.032;2023-04-27T00:14:08;13.80;;;5.63;;
6101;SDS011;3081;50.584;7.032;2023-04-27T00:16:35;11.40;;;5.63;;
6101;SDS011;3081;50.584;7.032;2023-04-27T00:19:02;11.47;;;5.37;;
6101;SDS011;3081;50.584;7.032;2023-04-27T00:21:30;16.07;;;5.70;;
6101;SDS011;3081;50.584;7.032;2023-04-27T00:23:57;16.63;;;5.17;;
6101;SDS011;3081;50.584;7.032;2023-04-27T00:26:24;15.03;;;5.03;;
6101;SDS011;3081;50.584;7.032;2023-04-27T00:28:51;12.97;;;5.53;;
6101;SDS011;3081;50.584;7.032;2023-04-27T00:31:18;11.70;;;5.03;;
6101;SDS011;3081;50.584;7.032;2023-04-27T00:33:45;9.60;;;4.67;;
6101;SDS011;3081;50.584;7.032;2023-04-27T00:36:12;14.20;;;5.40;;
6101;SDS011;3081;50.584;7.032;2023-04-27T00:38:40;11.53;;;4.90;;
6101;SDS011;3081;50.584;7.032;2023-04-27T00:41:07;12.20;;;4.67;;
6101;SDS011;3081;50.584;7.032;2023-04-27T00:43:40;10.93;;;4.83;;
6101;SDS011;3081;50.584;7.032;2023-04-27T00:46:08;9.83;;;4.93;;
6101;SDS011;3081;50.584;7.032;2023-04-27T00:48:35;16.90;;;5.83;;
6101;SDS011;3081;50.584;7.032;2023-04-27T00:51:02;10.20;;;5.10;;
6101;SDS011;3081;50.584;7.032;2023-04-27T00:53:29;13.57;;;5.10;;
6101;SDS011;3081;50.584;7.032;2023-04-27T00:55:58;12.40;;;4.80;;
6101;SDS011;3081;50.584;7.032;2023-04-27T00:58:25;8.90;;;4.13;;
6101;SDS011;3081;50.584;7.032;2023-04-27T01:00:52;13.37;;;5.20;;
6101;SDS011;3081;50.584;7.032;2023-04-27T01:03:19;11.83;;;4.70;;
6101;SDS011;3081;50.584;7.032;2023-04-27T01:05:47;13.63;;;4.90;;
6101;SDS011;3081;50.584;7.032;2023-04-27T01:08:13;12.23;;;4.90;;
6101;SDS011;3081;50.584;7.032;2023-04-27T01:10:40;12.00;;;4.50;;
6101;SDS011;3081;50.584;7.032;2023-04-27T01:13:09;10.27;;;4.80;;
6101;SDS011;3081;50.584;7.032;2023-04-27T01:15:36;9.20;;;4.63;;
6101;SDS011;3081;50.584;7.032;2023-04-27T01:18:03;11.80;;;5.30;;
6101;SDS011;3081;50.584;7.032;2023-04-27T01:20:30;14.47;;;5.27;;
6101;SDS011;3081;50.584;7.032;2023-04-27T01:22:57;10.97;;;5.17;;
6101;SDS011;3081;50.584;7.032;2023-04-27T01:25:25;11.77;;;5.27;;
6101;SDS011;3081;50.584;7.032;2023-04-27T01:27:52;10.80;;;4.87;;
6101;SDS011;3081;50.584;7.032;2023-04-27T01:30:19;11.30;;;5.60;;
6101;SDS011;3081;50.584;7.032;2023-04-27T01:32:47;17.00;;;5.20;;
6101;SDS011;3081;50.584;7.032;2023-04-27T01:35:14;16.53;;;4.93;;
6101;SDS011;3081;50.584;7.032;2023-04-27T01:37:41;12.23;;;4.90;;
6101;SDS011;3081;50.584;7.032;2023-04-27T01:40:09;11.10;;;4.23;;
6101;SDS011;3081;50.584;7.032;2023-04-27T01:42:38;12.03;;;4.73;;
6101;SDS011;3081;50.584;7.032;2023-04-27T01:45:05;10.67;;;4.93;;
6101;SDS011;3081;50.584;7.032;2023-04-27T01:47:33;11.17;;;5.07;;
6101;SDS011;3081;50.584;7.032;2023-04-27T01:50:00;13.47;;;5.30;;
6101;SDS011;3081;50.584;7.032;2023-04-27T01:52:28;10.10;;;4.33;;
6101;SDS011;3081;50.584;7.032;2023-04-27T01:54:54;11.20;;;4.70;;
6101;SDS011;3081;50.584;7.032;2023-04-27T01:57:21;9.77;;;5.20;;
6101;SDS011;3081;50.584;7.032;2023-04-27T01:59:50;12.70;;;5.30;;
6101;SDS011;3081;50.584;7.032;2023-04-27T02:02:17;14.53;;;5.13;;
6101;SDS011;3081;50.584;7.032;2023-04-27T02:04:44;10.80;;;5.20;;
6101;SDS011;3081;50.584;7.032;2023-04-27T02:07:11;12.07;;;5.20;;
6101;SDS011;3081;50.584;7.032;2023-04-27T02:09:38;13.40;;;5.60;;
6101;SDS011;3081;50.584;7.032;2023-04-27T02:12:05;10.87;;;5.30;;
6101;SDS011;3081;50.584;7.032;2023-04-27T02:14:32;13.17;;;5.13;;
6101;SDS011;3081;50.584;7.032;2023-04-27T02:17:00;11.10;;;4.97;;
6101;SDS011;3081;50.584;7.032;2023-04-27T02:19:27;12.87;;;6.10;;
6101;SDS011;3081;50.584;7.032;2023-04-27T02:21:54;13.20;;;5.80;;
6101;SDS011;3081;50.584;7.032;2023-04-27T02:24:21;9.77;;;4.60;;
6101;SDS011;3081;50.584;7.032;2023-04-27T02:26:48;15.70;;;5.67;;
6101;SDS011;3081;50.584;7.032;2023-04-27T02:29:15;14.53;;;5.83;;
6101;SDS011;3081;50.584;7.032;2023-04-27T02:31:42;12.73;;;5.67;;
6101;SDS011;3081;50.584;7.032;2023-04-27T02:34:10;13.03;;;4.83;;
6101;SDS011;3081;50.584;7.032;2023-04-27T02:36:37;11.53;;;5.13;;
6101;SDS011;3081;50.584;7.032;2023-04-27T02:39:04;14.53;;;5.03;;
6101;SDS011;3081;50.584;7.032;2023-04-27T02:41:31;11.73;;;5.37;;
6101;SDS011;3081;50.584;7.032;2023-04-27T02:43:58;13.03;;;5.60;;
6101;SDS011;3081;50.584;7.032;2023-04-27T02:46:25;11.33;;;5.13;;
6101;SDS011;3081;50.584;7.032;2023-04-27T02:48:52;13.70;;;5.10;;
6101;SDS011;3081;50.584;7.032;2023-04-27T02:51:20;9.90;;;5.10;;
6101;SDS011;3081;50.584;7.032;2023-04-27T02:53:47;12.43;;;5.50;;
6101;SDS011;3081;50.584;7.032;2023-04-27T02:56:14;14.93;;;6.30;;
6101;SDS011;3081;50.584;7.032;2023-04-27T02:58:41;12.63;;;5.33;;
6101;SDS011;3081;50.584;7.032;2023-04-27T03:01:08;10.33;;;5.63;;
6101;SDS011;3081;50.584;7.032;2023-04-27T03:03:35;10.73;;;5.47;;
6101;SDS011;3081;50.584;7.032;2023-04-27T03:06:02;15.73;;;6.53;;
6101;SDS011;3081;50.584;7.032;2023-04-27T03:08:31;15.17;;;5.57;;
6101;SDS011;3081;50.584;7.032;2023-04-27T03:10:58;13.67;;;5.77;;
6101;SDS011;3081;50.584;7.032;2023-04-27T03:13:25;12.77;;;5.70;;
6101;SDS011;3081;50.584;7.032;2023-04-27T03:15:52;21.30;;;6.30;;
6101;SDS011;3081;50.584;7.032;2023-04-27T03:18:19;12.67;;;6.03;;
6101;SDS011;3081;50.584;7.032;2023-04-27T03:20:46;11.80;;;5.80;;
6101;SDS011;3081;50.584;7.032;2023-04-27T03:23:13;17.77;;;6.60;;
6101;SDS011;3081;50.584;7.032;2023-04-27T03:25:41;15.13;;;6.00;;
6101;SDS011;3081;50.584;7.032;2023-04-27T03:28:08;12.17;;;6.00;;
6101;SDS011;3081;50.584;7.032;2023-04-27T03:30:37;11.30;;;5.80;;
6101;SDS011;3081;50.584;7.032;2023-04-27T03:33:04;16.17;;;6.40;;
6101;SDS011;3081;50.584;7.032;2023-04-27T03:35:31;13.17;;;5.90;;
6101;SDS011;3081;50.584;7.032;2023-04-27T03:37:58;13.07;;;6.60;;
6101;SDS011;3081;50.584;7.032;2023-04-27T03:40:25;13.33;;;6.27;;
6101;SDS011;3081;50.584;7.032;2023-04-27T03:42:53;15.33;;;7.03;;
6101;SDS011;3081;50.584;7.032;2023-04-27T03:45:20;17.00;;;7.07;;
6101;SDS011;3081;50.584;7.032;2023-04-27T03:47:48;13.77;;;7.03;;
6101;SDS011;3081;50.584;7.032;2023-04-27T03:50:15;14.70;;;8.17;;
6101;SDS011;3081;50.584;7.032;2023-04-27T03:52:42;15.70;;;6.90;;
6101;SDS011;3081;50.584;7.032;2023-04-27T03:55:09;16.03;;;7.73;;
6101;SDS011;3081;50.584;7.032;2023-04-27T03:57:36;14.53;;;7.33;;
6101;SDS011;3081;50.584;7.032;2023-04-27T04:00:05;13.00;;;6.53;;
6101;SDS011;3081;50.584;7.032;2023-04-27T04:02:35;14.23;;;6.67;;
6101;SDS011;3081;50.584;7.032;2023-04-27T04:05:03;13.50;;;6.50;;
6101;SDS011;3081;50.584;7.032;2023-04-27T04:07:30;15.97;;;6.67;;
6101;SDS011;3081;50.584;7.032;2023-04-27T04:09:57;14.60;;;7.30;;
6101;SDS011;3081;50.584;7.032;2023-04-27T04:12:23;16.13;;;7.63;;
6101;SDS011;3081;50.584;7.032;2023-04-27T04:14:50;16.77;;;7.73;;
6101;SDS011;3081;50.584;7.032;2023-04-27T04:17:19;15.33;;;6.47;;
6101;SDS011;3081;50.584;7.032;2023-04-27T04:19:45;16.47;;;8.30;;
6101;SDS011;3081;50.584;7.032;2023-04-27T04:22:12;16.37;;;7.90;;
6101;SDS011;3081;50.584;7.032;2023-04-27T04:24:39;16.90;;;7.50;;
6101;SDS011;3081;50.584;7.032;2023-04-27T04:27:06;17.27;;;8.43;;
6101;SDS011;3081;50.584;7.032;2023-04-27T04:29:33;19.20;;;7.50;;
6101;SDS011;3081;50.584;7.032;2023-04-27T04:32:00;22.57;;;8.70;;
6101;SDS011;3081;50.584;7.032;2023-04-27T04:34:28;14.87;;;7.83;;
6101;SDS011;3081;50.584;7.032;2023-04-27T04:36:56;15.37;;;8.17;;
6101;SDS011;3081;50.584;7.032;2023-04-27T04:39:23;16.07;;;7.90;;
6101;SDS011;3081;50.584;7.032;2023-04-27T04:41:51;17.83;;;7.40;;
6101;SDS011;3081;50.584;7.032;2023-04-27T04:44:18;17.63;;;7.60;;
6101;SDS011;3081;50.584;7.032;2023-04-27T04:46:45;17.33;;;7.00;;
6101;SDS011;3081;50.584;7.032;2023-04-27T04:49:12;14.90;;;7.73;;
6101;SDS011;3081;50.584;7.032;2023-04-27T04:51:42;19.77;;;7.23;;
6101;SDS011;3081;50.584;7.032;2023-04-27T04:54:09;23.13;;;8.80;;
6101;SDS011;3081;50.584;7.032;2023-04-27T04:56:36;14.10;;;7.30;;
6101;SDS011;3081;50.584;7.032;2023-04-27T04:59:03;22.17;;;7.30;;
6101;SDS011;3081;50.584;7.032;2023-04-27T05:01:30;19.00;;;7.43;;
6101;SDS011;3081;50.584;7.032;2023-04-27T05:03:57;17.43;;;8.40;;
6101;SDS011;3081;50.584;7.032;2023-04-27T05:06:24;17.30;;;8.33;;
6101;SDS011;3081;50.584;7.032;2023-04-27T05:08:53;17.17;;;8.50;;
6101;SDS011;3081;50.584;7.032;2023-04-27T05:11:20;17.60;;;7.50;;
6101;SDS011;3081;50.584;7.032;2023-04-27T05:13:47;18.13;;;8.47;;
6101;SDS011;3081;50.584;7.032;2023-04-27T05:16:14;15.77;;;7.57;;
6101;SDS011;3081;50.584;7.032;2023-04-27T05:18:41;18.80;;;7.57;;
6101;SDS011;3081;50.584;7.032;2023-04-27T05:21:12;18.20;;;8.13;;
6101;SDS011;3081;50.584;7.032;2023-04-27T05:23:40;18.67;;;7.67;;
6101;SDS011;3081;50.584;7.032;2023-04-27T05:26:11;20.50;;;8.03;;
6101;SDS011;3081;50.584;7.032;2023-04-27T05:28:39;21.30;;;8.10;;
6101;SDS011;3081;50.584;7.032;2023-04-27T05:31:06;20.03;;;7.97;;
6101;SDS011;3081;50.584;7.032;2023-04-27T05:33:33;18.60;;;7.63;;
6101;SDS011;3081;50.584;7.032;2023-04-27T05:36:00;19.77;;;7.80;;
6101;SDS011;3081;50.584;7.032;2023-04-27T05:38:27;15.80;;;8.03;;
6101;SDS011;3081;50.584;7.032;2023-04-27T05:40:54;17.40;;;8.10;;
6101;SDS011;3081;50.584;7.032;2023-04-27T05:43:22;22.57;;;9.60;;
6101;SDS011;3081;50.584;7.032;2023-04-27T05:45:50;22.73;;;9.10;;
6101;SDS011;3081;50.584;7.032;2023-04-27T05:48:17;25.23;;;8.00;;
6101;SDS011;3081;50.584;7.032;2023-04-27T05:50:44;14.40;;;6.83;;
6101;SDS011;3081;50.584;7.032;2023-04-27T05:53:11;19.07;;;7.50;;
6101;SDS011;3081;50.584;7.032;2023-04-27T05:55:38;16.60;;;9.23;;
6101;SDS011;3081;50.584;7.032;2023-04-27T05:58:05;21.67;;;8.80;;
6101;SDS011;3081;50.584;7.032;2023-04-27T06:00:33;16.63;;;7.53;;
6101;SDS011;3081;50.584;7.032;2023-04-27T06:03:00;20.20;;;8.70;;
6101;SDS011;3081;50.584;7.032;2023-04-27T06:05:27;28.07;;;9.23;;
6101;SDS011;3081;50.584;7.032;2023-04-27T06:07:54;18.93;;;8.80;;
6101;SDS011;3081;50.584;7.032;2023-04-27T06:10:21;17.03;;;8.40;;
6101;SDS011;3081;50.584;7.032;2023-04-27T06:12:48;18.10;;;8.67;;
6101;SDS011;3081;50.584;7.032;2023-04-27T06:15:15;18.67;;;8.40;;
6101;SDS011;3081;50.584;7.032;2023-04-27T06:17:43;22.37;;;8.43;;
6101;SDS011;3081;50.584;7.032;2023-04-27T06:20:10;20.40;;;8.60;;
6101;SDS011;3081;50.584;7.032;2023-04-27T06:22:37;17.23;;;8.90;;
6101;SDS011;3081;50.584;7.032;2023-04-27T06:25:05;14.00;;;7.17;;
6101;SDS011;3081;50.584;7.032;2023-04-27T06:27:32;19.00;;;8.13;;
6101;SDS011;3081;50.584;7.032;2023-04-27T06:29:59;18.20;;;8.50;;
6101;SDS011;3081;50.584;7.032;2023-04-27T06:32:26;19.63;;;8.00;;
6101;SDS011;3081;50.584;7.032;2023-04-27T06:34:54;17.40;;;7.37;;
6101;SDS011;3081;50.584;7.032;2023-04-27T06:37:21;16.93;;;7.80;;
6101;SDS011;3081;50.584;7.032;2023-04-27T06:39:48;22.63;;;8.43;;
6101;SDS011;3081;50.584;7.032;2023-04-27T06:42:15;18.73;;;9.80;;
6101;SDS011;3081;50.584;7.032;2023-04-27T06:44:42;16.00;;;8.23;;
6101;SDS011;3081;50.584;7.032;2023-04-27T06:47:09;26.73;;;9.00;;
6101;SDS011;3081;50.584;7.032;2023-04-27T06:49:36;18.70;;;8.40;;
6101;SDS011;3081;50.584;7.032;2023-04-27T06:52:04;19.83;;;8.40;;
6101;SDS011;3081;50.584;7.032;2023-04-27T06:54:31;24.03;;;8.53;;
6101;SDS011;3081;50.584;7.032;2023-04-27T06:56:58;16.73;;;8.50;;
6101;SDS011;3081;50.584;7.032;2023-04-27T06:59:25;18.10;;;8.30;;
6101;SDS011;3081;50.584;7.032;2023-04-27T07:01:52;18.50;;;8.43;;
6101;SDS011;3081;50.584;7.032;2023-04-27T07:04:19;17.40;;;7.97;;
6101;SDS011;3081;50.584;7.032;2023-04-27T07:06:46;17.67;;;8.97;;
6101;SDS011;3081;50.584;7.032;2023-04-27T07:09:14;20.60;;;8.00;;
6101;SDS011;3081;50.584;7.032;2023-04-27T07:11:41;27.70;;;12.53;;
6101;SDS011;3081;50.584;7.032;2023-04-27T07:14:08;15.70;;;6.87;;
6101;SDS011;3081;50.584;7.032;2023-04-27T07:16:35;27.00;;;9.03;;
6101;SDS011;3081;50.584;7.032;2023-04-27T07:19:02;19.00;;;9.20;;
6101;SDS011;3081;50.584;7.032;2023-04-27T07:21:29;21.67;;;8.47;;
6101;SDS011;3081;50.584;7.032;2023-04-27T07:23:56;18.47;;;8.63;;
6101;SDS011;3081;50.584;7.032;2023-04-27T07:26:24;18.20;;;8.67;;
6101;SDS011;3081;50.584;7.032;2023-04-27T07:28:51;18.83;;;7.63;;
6101;SDS011;3081;50.584;7.032;2023-04-27T07:31:19;17.77;;;8.17;;
6101;SDS011;3081;50.584;7.032;2023-04-27T07:33:46;21.00;;;8.03;;
6101;SDS011;3081;50.584;7.032;2023-04-27T07:36:13;15.80;;;8.03;;
6101;SDS011;3081;50.584;7.032;2023-04-27T07:38:40;21.03;;;8.40;;
6101;SDS011;3081;50.584;7.032;2023-04-27T07:41:07;19.20;;;7.97;;
6101;SDS011;3081;50.584;7.032;2023-04-27T07:43:35;18.60;;;8.10;;
6101;SDS011;3081;50.584;7.032;2023-04-27T07:46:02;21.60;;;8.73;;
6101;SDS011;3081;50.584;7.032;2023-04-27T07:48:29;20.87;;;8.40;;
6101;SDS011;3081;50.584;7.032;2023-04-27T07:50:56;20.47;;;9.00;;
6101;SDS011;3081;50.584;7.032;2023-04-27T07:53:23;16.00;;;7.50;;
6101;SDS011;3081;50.584;7.032;2023-04-27T07:55:50;16.63;;;7.80;;
6101;SDS011;3081;50.584;7.032;2023-04-27T07:58:17;26.17;;;7.70;;
6101;SDS011;3081;50.584;7.032;2023-04-27T08:00:46;17.77;;;8.27;;
6101;SDS011;3081;50.584;7.032;2023-04-27T08:03:13;16.03;;;7.57;;
6101;SDS011;3081;50.584;7.032;2023-04-27T08:05:40;28.00;;;12.03;;
6101;SDS011;3081;50.584;7.032;2023-04-27T08:08:07;16.27;;;7.93;;
6101;SDS011;3081;50.584;7.032;2023-04-27T08:10:34;17.10;;;8.00;;
6101;SDS011;3081;50.584;7.032;2023-04-27T08:13:02;17.47;;;8.10;;
6101;SDS011;3081;50.584;7.032;2023-04-27T08:15:29;15.83;;;7.30;;
6101;SDS011;3081;50.584;7.032;2023-04-27T08:17:57;14.30;;;6.60;;
6101;SDS011;3081;50.584;7.032;2023-04-27T08:20:24;17.70;;;7.27;;
6101;SDS011;3081;50.584;7.032;2023-04-27T08:22:51;16.50;;;7.37;;
6101;SDS011;3081;50.584;7.032;2023-04-27T08:25:18;17.47;;;6.60;;
6101;SDS011;3081;50.584;7.032;2023-04-27T08:27:45;17.10;;;7.70;;
6101;SDS011;3081;50.584;7.032;2023-04-27T08:30:12;16.70;;;8.30;;
6101;SDS011;3081;50.584;7.032;2023-04-27T08:32:39;19.10;;;8.00;;
6101;SDS011;3081;50.584;7.032;2023-04-27T08:35:08;17.23;;;7.63;;
6101;SDS011;3081;50.584;7.032;2023-04-27T08:37:35;18.63;;;7.40;;
6101;SDS011;3081;50.584;7.032;2023-04-27T08:40:03;20.40;;;8.30;;
6101;SDS011;3081;50.584;7.032;2023-04-27T08:42:32;16.37;;;7.67;;
6101;SDS011;3081;50.584;7.032;2023-04-27T08:44:59;16.97;;;7.50;;
6101;SDS011;3081;50.584;7.032;2023-04-27T08:47:26;13.87;;;6.37;;
6101;SDS011;3081;50.584;7.032;2023-04-27T08:49:52;19.50;;;7.40;;
6101;SDS011;3081;50.584;7.032;2023-04-27T08:52:21;13.50;;;5.50;;
6101;SDS011;3081;50.584;7.032;2023-04-27T08:54:48;14.50;;;6.07;;
6101;SDS011;3081;50.584;7.032;2023-04-27T08:57:15;15.80;;;5.80;;
6101;SDS011;3081;50.584;7.032;2023-04-27T08:59:42;14.53;;;6.33;;
6101;SDS011;3081;50.584;7.032;2023-04-27T09:02:16;29.27;;;7.80;;
6101;SDS011;3081;50.584;7.032;2023-04-27T09:04:45;12.90;;;6.00;;
6101;SDS011;3081;50.584;7.032;2023-04-27T09:07:12;16.70;;;7.33;;
6101;SDS011;3081;50.584;7.032;2023-04-27T09:09:41;17.77;;;7.50;;
6101;SDS011;3081;50.584;7.032;2023-04-27T09:12:15;15.80;;;7.50;;
6101;SDS011;3081;50.584;7.032;2023-04-27T09:14:43;14.10;;;6.40;;
6101;SDS011;3081;50.584;7.032;2023-04-27T09:17:23;17.77;;;7.63;;
6101;SDS011;3081;50.584;7.032;2023-04-27T09:19:51;16.43;;;6.60;;
6101;SDS011;3081;50.584;7.032;2023-04-27T09:22:18;18.30;;;6.50;;
6101;SDS011;3081;50.584;7.032;2023-04-27T09:24:52;14.97;;;7.40;;
6101;SDS011;3081;50.584;7.032;2023-04-27T09:27:19;16.30;;;7.53;;
6101;SDS011;3081;50.584;7.032;2023-04-27T09:29:47;17.10;;;9.40;;
6101;SDS011;3081;50.584;7.032;2023-04-27T09:32:14;14.33;;;7.10;;
6101;SDS011;3081;50.584;7.032;2023-04-27T09:34:42;20.00;;;8.83;;
6101;SDS011;3081;50.584;7.032;2023-04-27T09:37:09;16.10;;;8.03;;
6101;SDS011;3081;50.584;7.032;2023-04-27T09:39:36;16.50;;;8.07;;
6101;SDS011;3081;50.584;7.032;2023-04-27T09:42:05;17.83;;;9.57;;
6101;SDS011;3081;50.584;7.032;2023-04-27T09:44:32;15.20;;;7.60;;
6101;SDS011;3081;50.584;7.032;2023-04-27T09:47:00;17.80;;;8.20;;
6101;SDS011;3081;50.584;7.032;2023-04-27T09:49:27;15.83;;;7.13;;
6101;SDS011;3081;50.584;7.032;2023-04-27T09:51:54;24.30;;;12.33;;
6101;SDS011;3081;50.584;7.032;2023-04-27T09:54:23;16.03;;;6.90;;
6101;SDS011;3081;50.584;7.032;2023-04-27T09:56:58;20.27;;;9.90;;
6101;SDS011;3081;50.584;7.032;2023-04-27T09:59:43;17.07;;;8.20;;
6101;SDS011;3081;50.584;7.032;2023-04-27T10:02:32;25.40;;;8.53;;
6101;SDS011;3081;50.584;7.032;2023-04-27T10:08:04;14.73;;;6.30;;
6101;SDS011;3081;50.584;7.032;2023-04-27T10:10:40;12.53;;;5.67;;
6101;SDS011;3081;50.584;7.032;2023-04-27T10:13:18;14.17;;;5.20;;
6101;SDS011;3081;50.584;7.032;2023-04-27T10:15:48;19.47;;;7.60;;
6101;SDS011;3081;50.584;7.032;2023-04-27T10:18:24;19.37;;;7.33;;
6101;SDS011;3081;50.584;7.032;2023-04-27T10:20:52;21.00;;;8.60;;
6101;SDS011;3081;50.584;7.032;2023-04-27T10:23:23;15.60;;;8.33;;
6101;SDS011;3081;50.584;7.032;2023-04-27T10:25:50;17.93;;;7.80;;
6101;SDS011;3081;50.584;7.032;2023-04-27T10:28:18;51.43;;;18.37;;
6101;SDS011;3081;50.584;7.032;2023-04-27T10:30:46;37.00;;;13.70;;
6101;SDS011;3081;50.584;7.032;2023-04-27T10:33:15;15.77;;;6.30;;
6101;SDS011;3081;50.584;7.032;2023-04-27T10:35:44;14.60;;;6.00;;
6101;SDS011;3081;50.584;7.032;2023-04-27T10:38:19;19.73;;;6.60;;
6101;SDS011;3081;50.584;7.032;2023-04-27T10:40:53;14.63;;;6.40;;
6101;SDS011;3081;50.584;7.032;2023-04-27T10:43:23;16.60;;;6.37;;
6101;SDS011;3081;50.584;7.032;2023-04-27T10:45:53;17.83;;;6.93;;
6101;SDS011;3081;50.584;7.032;2023-04-27T10:48:20;17.90;;;5.90;;
6101;SDS011;3081;50.584;7.032;2023-04-27T10:50:49;15.60;;;5.90;;
6101;SDS011;3081;50.584;7.032;2023-04-27T10:53:16;28.80;;;7.87;;
6101;SDS011;3081;50.584;7.032;2023-04-27T10:55:43;19.37;;;9.30;;
6101;SDS011;3081;50.584;7.032;2023-04-27T10:58:11;25.07;;;9.63;;
6101;SDS011;3081;50.584;7.032;2023-04-27T11:00:38;22.57;;;11.17;;
6101;SDS011;3081;50.584;7.032;2023-04-27T11:03:13;16.93;;;6.20;;
6101;SDS011;3081;50.584;7.032;2023-04-27T11:05:42;14.67;;;6.77;;
6101;SDS011;3081;50.584;7.032;2023-04-27T11:08:11;15.77;;;7.70;;
6101;SDS011;3081;50.584;7.032;2023-04-27T11:10:41;12.00;;;5.50;;
6101;SDS011;3081;50.584;7.032;2023-04-27T11:13:10;25.13;;;10.43;;
6101;SDS011;3081;50.584;7.032;2023-04-27T11:15:42;23.00;;;11.33;;
6101;SDS011;3081;50.584;7.032;2023-04-27T11:18:10;26.63;;;11.90;;
6101;SDS011;3081;50.584;7.032;2023-04-27T11:20:38;24.53;;;10.70;;
6101;SDS011;3081;50.584;7.032;2023-04-27T11:23:06;14.93;;;6.10;;
6101;SDS011;3081;50.584;7.032;2023-04-27T11:25:35;13.90;;;6.20;;
6101;SDS011;3081;50.584;7.032;2023-04-27T11:28:02;16.37;;;7.47;;
6101;SDS011;3081;50.584;7.032;2023-04-27T11:30:30;11.47;;;5.40;;
6101;SDS011;3081;50.584;7.032;2023-04-27T11:32:57;20.53;;;6.63;;
6101;SDS011;3081;50.584;7.032;2023-04-27T11:38:19;15.03;;;6.80;;
6101;SDS011;3081;50.584;7.032;2023-04-27T11:40:57;13.90;;;6.43;;
6101;SDS011;3081;50.584;7.032;2023-04-27T11:43:24;13.90;;;6.40;;
6101;SDS011;3081;50.584;7.032;2023-04-27T11:45:51;16.53;;;6.83;;
6101;SDS011;3081;50.584;7.032;2023-04-27T11:48:19;14.90;;;5.60;;
6101;SDS011;3081;50.584;7.032;2023-04-27T11:50:49;15.17;;;5.70;;
6101;SDS011;3081;50.584;7.032;2023-04-27T11:53:27;14.83;;;5.87;;
6101;SDS011;3081;50.584;7.032;2023-04-27T11:55:55;16.47;;;6.67;;
6101;SDS011;3081;50.584;7.032;2023-04-27T11:58:25;13.30;;;5.77;;
6101;SDS011;3081;50.584;7.032;2023-04-27T12:00:54;18.53;;;6.00;;
6101;SDS011;3081;50.584;7.032;2023-04-27T12:03:22;13.60;;;5.53;;
6101;SDS011;3081;50.584;7.032;2023-04-27T12:05:51;13.67;;;5.70;;
6101;SDS011;3081;50.584;7.032;2023-04-27T12:08:18;14.47;;;5.43;;
6101;SDS011;3081;50.584;7.032;2023-04-27T12:10:45;15.53;;;5.53;;
6101;SDS011;3081;50.584;7.032;2023-04-27T12:13:12;13.57;;;5.20;;
6101;SDS011;3081;50.584;7.032;2023-04-27T12:15:39;16.33;;;6.40;;
6101;SDS011;3081;50.584;7.032;2023-04-27T12:18:07;14.67;;;5.50;;
6101;SDS011;3081;50.584;7.032;2023-04-27T12:20:35;13.70;;;5.30;;
6101;SDS011;3081;50.584;7.032;2023-04-27T12:23:03;16.13;;;5.80;;
6101;SDS011;3081;50.584;7.032;2023-04-27T12:25:30;15.30;;;5.83;;
6101;SDS011;3081;50.584;7.032;2023-04-27T12:27:57;13.80;;;5.40;;
6101;SDS011;3081;50.584;7.032;2023-04-27T12:30:24;14.53;;;4.90;;
6101;SDS011;3081;50.584;7.032;2023-04-27T12:32:52;11.93;;;4.33;;
6101;SDS011;3081;50.584;7.032;2023-04-27T12:35:19;13.80;;;4.80;;
6101;SDS011;3081;50.584;7.032;2023-04-27T12:37:46;14.00;;;4.83;;
6101;SDS011;3081;50.584;7.032;2023-04-27T12:40:15;14.20;;;4.77;;
6101;SDS011;3081;50.584;7.032;2023-04-27T12:42:42;13.80;;;4.70;;
6101;SDS011;3081;50.584;7.032;2023-04-27T12:45:09;12.77;;;5.00;;
6101;SDS011;3081;50.584;7.032;2023-04-27T12:47:36;15.80;;;5.47;;
6101;SDS011;3081;50.584;7.032;2023-04-27T12:50:04;15.93;;;6.47;;
6101;SDS011;3081;50.584;7.032;2023-04-27T12:52:33;12.73;;;5.40;;
6101;SDS011;3081;50.584;7.032;2023-04-27T12:55:00;12.67;;;5.20;;
6101;SDS011;3081;50.584;7.032;2023-04-27T12:57:30;13.80;;;5.00;;
6101;SDS011;3081;50.584;7.032;2023-04-27T12:59:56;14.30;;;5.50;;
6101;SDS011;3081;50.584;7.032;2023-04-27T13:02:24;90.37;;;11.83;;
6101;SDS011;3081;50.584;7.032;2023-04-27T13:04:52;89.07;;;10.43;;
6101;SDS011;3081;50.584;7.032;2023-04-27T13:07:19;43.53;;;6.90;;
6101;SDS011;3081;50.584;7.032;2023-04-27T13:09:46;11.97;;;4.60;;
6101;SDS011;3081;50.584;7.032;2023-04-27T13:12:13;13.47;;;4.60;;
6101;SDS011;3081;50.584;7.032;2023-04-27T13:14:41;13.23;;;5.83;;
6101;SDS011;3081;50.584;7.032;2023-04-27T13:17:10;10.87;;;4.00;;
6101;SDS011;3081;50.584;7.032;2023-04-27T13:19:37;13.60;;;4.40;;
6101;SDS011;3081;50.584;7.032;2023-04-27T13:22:04;9.60;;;4.60;;
6101;SDS011;3081;50.584;7.032;2023-04-27T13:24:33;11.10;;;4.57;;
6101;SDS011;3081;50.584;7.032;2023-04-27T13:27:00;14.43;;;4.67;;
6101;SDS011;3081;50.584;7.032;2023-04-27T13:29:27;15.00;;;4.67;;
6101;SDS011;3081;50.584;7.032;2023-04-27T13:31:55;14.13;;;5.00;;
6101;SDS011;3081;50.584;7.032;2023-04-27T13:34:22;11.27;;;4.40;;
6101;SDS011;3081;50.584;7.032;2023-04-27T13:36:49;10.10;;;3.87;;
6101;SDS011;3081;50.584;7.032;2023-04-27T13:39:16;11.10;;;4.03;;
6101;SDS011;3081;50.584;7.032;2023-04-27T13:41:43;12.20;;;4.00;;
6101;SDS011;3081;50.584;7.032;2023-04-27T13:44:10;12.03;;;4.27;;
6101;SDS011;3081;50.584;7.032;2023-04-27T13:46:37;11.30;;;4.20;;
6101;SDS011;3081;50.584;7.032;2023-04-27T13:49:05;11.27;;;4.00;;
6101;SDS011;3081;50.584;7.032;2023-04-27T13:51:32;17.73;;;4.50;;
6101;SDS011;3081;50.584;7.032;2023-04-27T13:53:59;9.60;;;4.27;;
6101;SDS011;3081;50.584;7.032;2023-04-27T13:56:26;8.77;;;3.67;;
6101;SDS011;3081;50.584;7.032;2023-04-27T13:58:53;9.40;;;2.90;;
6101;SDS011;3081;50.584;7.032;2023-04-27T14:01:20;10.17;;;3.63;;
6101;SDS011;3081;50.584;7.032;2023-04-27T14:03:46;12.70;;;3.60;;
6101;SDS011;3081;50.584;7.032;2023-04-27T14:06:15;9.27;;;3.37;;
6101;SDS011;3081;50.584;7.032;2023-04-27T14:08:42;8.90;;;3.70;;
6101;SDS011;3081;50.584;7.032;2023-04-27T14:11:10;12.57;;;3.70;;
6101;SDS011;3081;50.584;7.032;2023-04-27T14:13:37;10.27;;;3.60;;
6101;SDS011;3081;50.584;7.032;2023-04-27T14:16:06;11.00;;;3.40;;
6101;SDS011;3081;50.584;7.032;2023-04-27T14:18:33;10.97;;;3.50;;
6101;SDS011;3081;50.584;7.032;2023-04-27T14:21:00;10.20;;;3.83;;
6101;SDS011;3081;50.584;7.032;2023-04-27T14:23:28;9.60;;;3.57;;
6101;SDS011;3081;50.584;7.032;2023-04-27T14:25:55;11.47;;;3.53;;
6101;SDS011;3081;50.584;7.032;2023-04-27T14:28:22;13.57;;;3.23;;
6101;SDS011;3081;50.584;7.032;2023-04-27T14:30:50;11.53;;;3.80;;
6101;SDS011;3081;50.584;7.032;2023-04-27T14:33:17;10.07;;;4.10;;
6101;SDS011;3081;50.584;7.032;2023-04-27T14:35:44;10.53;;;3.53;;
6101;SDS011;3081;50.584;7.032;2023-04-27T14:38:10;10.43;;;3.30;;
6101;SDS011;3081;50.584;7.032;2023-04-27T14:40:39;9.00;;;3.13;;
6101;SDS011;3081;50.584;7.032;2023-04-27T14:43:06;10.47;;;4.40;;
6101;SDS011;3081;50.584;7.032;2023-04-27T14:45:34;10.43;;;2.87;;
6101;SDS011;3081;50.584;7.032;2023-04-27T14:48:00;10.03;;;3.37;;
6101;SDS011;3081;50.584;7.032;2023-04-27T14:50:27;9.70;;;3.70;;
6101;SDS011;3081;50.584;7.032;2023-04-27T14:52:54;7.60;;;3.00;;
6101;SDS011;3081;50.584;7.032;2023-04-27T14:55:22;11.70;;;4.30;;
6101;SDS011;3081;50.584;7.032;2023-04-27T14:57:51;9.47;;;3.57;;
6101;SDS011;3081;50.584;7.032;2023-04-27T15:00:18;11.80;;;4.00;;
6101;SDS011;3081;50.584;7.032;2023-04-27T15:02:45;11.30;;;4.30;;
6101;SDS011;3081;50.584;7.032;2023-04-27T15:05:12;9.57;;;3.27;;
6101;SDS011;3081;50.584;7.032;2023-04-27T15:07:39;8.03;;;3.20;;
6101;SDS011;3081;50.584;7.032;2023-04-27T15:10:06;8.70;;;3.00;;
6101;SDS011;3081;50.584;7.032;2023-04-27T15:12:34;9.30;;;3.10;;